Thomson Dream — 9HA2381 — position and weather

sailwx.info

Track history (hours):
 
Tides and Currents Weather Stations Pressure Air Temp Water Temp Dewpoint Dewpoint Depression Visibility Wind Speed Wind Dir Waves Ship Positions

Thomson Dream

Last reported at 2017-Apr-26 21:11 UTC. Time now 2017-Apr-27 01:32 UTC.
Position N 36°06' W 005°04'.

Length 243 m; draft 7.6 m.

Type: Ship. MMSI: 248480975.

Date/timePositionNaut miles runAvg speedWind from/ knotsBaromVisibWave heightAir tempDewpointWater temp
2017-Apr-26 21:11N 36°06' W 005°04'311.8
2017-Apr-26 20:57N 36°05' W 005°07'716.4
2017-Apr-26 20:30N 36°01' W 005°14'1020.4
2017-Apr-26 20:00N 35°58' W 005°26'1121.6
2017-Apr-26 19:30N 35°55' W 005°39'1220.1
2017-Apr-26 18:53N 35°54' W 005°54'  
2017-Apr-17 18:12N 17°07' W 061°51'0 0.0
2017-Apr-17 18:00N 17°07' W 061°51'0 0.0
2017-Apr-17 17:30N 17°07' W 061°51'0 0.0
2017-Apr-17 17:00N 17°07' W 061°51'0 0.0
2017-Apr-17 16:30N 17°07' W 061°51'0 0.0
2017-Apr-17 16:00N 17°07' W 061°51'0 0.0
2017-Apr-17 15:30N 17°07' W 061°51'0 0.0
2017-Apr-17 15:00N 17°07' W 061°51'0 0.0
2017-Apr-17 14:00N 17°07' W 061°51'0 0.0
2017-Apr-17 13:30N 17°07' W 061°51'0 0.0
2017-Apr-17 13:00N 17°07' W 061°51'0 0.0
2017-Apr-17 12:30N 17°07' W 061°51'0 0.0
2017-Apr-17 12:00N 17°07' W 061°51'0 0.0
2017-Apr-17 11:30N 17°07' W 061°51'0 0.3
2017-Apr-17 11:00N 17°07' W 061°51'4 7.2
2017-Apr-17 10:30N 17°09' W 061°54'611.4
2017-Apr-17 10:00N 17°10' W 062°00'714.9
2017-Apr-17 09:30N 17°09' W 062°08'816.5
2017-Apr-17 09:01N 17°09' W 062°17'5 9.7
2017-Apr-17 08:29N 17°09' W 062°22'1 1.7
2017-Apr-17 08:00N 17°09' W 062°21'2 1.9
2017-Apr-17 06:48N 17°09' W 062°19'1 1.8
2017-Apr-17 06:30N 17°10' W 062°18'1 1.8
2017-Apr-17 06:00N 17°09' W 062°17'1 1.8
2017-Apr-17 05:24N 17°09' W 062°16'1 1.9
2017-Apr-17 05:00N 17°09' W 062°16'1 1.9
2017-Apr-17 04:30N 17°09' W 062°15'1 1.7
2017-Apr-17 04:01N 17°09' W 062°14'1 1.9
2017-Apr-17 03:30N 17°09' W 062°13'1 1.7
2017-Apr-17 03:00N 17°09' W 062°12'1 1.8
2017-Apr-17 02:30N 17°08' W 062°12'5 8.7
2017-Apr-17 01:53N 17°04' W 062°15'4 9.4
2017-Apr-17 01:30N 17°03' W 062°19'510.1
2017-Apr-17 01:00N 17°03' W 062°24'  
Track history (hours):
 
Tides and Currents Weather Stations Pressure Air Temp Water Temp Dewpoint Dewpoint Depression Visibility Wind Speed Wind Dir Waves Ship Positions

Thomson Dream

Last reported at 2017-Apr-26 21:11 UTC. Time now 2017-Apr-27 01:32 UTC.
Position N 36°06' W 005°04'.

Length 243 m; draft 7.6 m.

Type: Ship. MMSI: 248480975.

Date/timePositionNaut miles runAvg speedWind from/ knotsBaromVisibWave heightAir tempDewpointWater temp
2017-Apr-26 21:11N 36°06' W 005°04'311.8
2017-Apr-26 20:57N 36°05' W 005°07'716.4
2017-Apr-26 20:30N 36°01' W 005°14'1020.4
2017-Apr-26 20:00N 35°58' W 005°26'1121.6
2017-Apr-26 19:30N 35°55' W 005°39'1220.1
2017-Apr-26 18:53N 35°54' W 005°54'  
2017-Apr-17 18:12N 17°07' W 061°51'0 0.0
2017-Apr-17 18:00N 17°07' W 061°51'0 0.0
2017-Apr-17 17:30N 17°07' W 061°51'0 0.0
2017-Apr-17 17:00N 17°07' W 061°51'0 0.0
2017-Apr-17 16:30N 17°07' W 061°51'0 0.0
2017-Apr-17 16:00N 17°07' W 061°51'0 0.0
2017-Apr-17 15:30N 17°07' W 061°51'0 0.0
2017-Apr-17 15:00N 17°07' W 061°51'0 0.0
2017-Apr-17 14:00N 17°07' W 061°51'0 0.0
2017-Apr-17 13:30N 17°07' W 061°51'0 0.0
2017-Apr-17 13:00N 17°07' W 061°51'0 0.0
2017-Apr-17 12:30N 17°07' W 061°51'0 0.0
2017-Apr-17 12:00N 17°07' W 061°51'0 0.0
2017-Apr-17 11:30N 17°07' W 061°51'0 0.3
2017-Apr-17 11:00N 17°07' W 061°51'4 7.2
2017-Apr-17 10:30N 17°09' W 061°54'611.4
2017-Apr-17 10:00N 17°10' W 062°00'714.9
2017-Apr-17 09:30N 17°09' W 062°08'816.5
2017-Apr-17 09:01N 17°09' W 062°17'5 9.7
2017-Apr-17 08:29N 17°09' W 062°22'1 1.7
2017-Apr-17 08:00N 17°09' W 062°21'2 1.9
2017-Apr-17 06:48N 17°09' W 062°19'1 1.8
2017-Apr-17 06:30N 17°10' W 062°18'1 1.8
2017-Apr-17 06:00N 17°09' W 062°17'1 1.8
2017-Apr-17 05:24N 17°09' W 062°16'1 1.9
2017-Apr-17 05:00N 17°09' W 062°16'1 1.9
2017-Apr-17 04:30N 17°09' W 062°15'1 1.7
2017-Apr-17 04:01N 17°09' W 062°14'1 1.9
2017-Apr-17 03:30N 17°09' W 062°13'1 1.7
2017-Apr-17 03:00N 17°09' W 062°12'1 1.8
2017-Apr-17 02:30N 17°08' W 062°12'5 8.7
2017-Apr-17 01:53N 17°04' W 062°15'4 9.4
2017-Apr-17 01:30N 17°03' W 062°19'510.1
2017-Apr-17 01:00N 17°03' W 062°24'  

Dump ship's entire track history